New Iberia, Louisiana
Current Conditions -  °F | °C
As of 9:53 PM on Thursday 18 Dec 2014 (Local Time) from KARA Reporting Station
Overcast Overcast  
Wind Chill: 17°   Ceiling: 1400
Heat Index: 17°   Visibility: 10mi
Dew Point: 13°   Wind: 6mph
Humidity: 78%   Direction: 80°E
Pressure: 30.12"   Gusts: NA
Location:  30.01°N, 91.82°W
Report Text: KARA 190353Z AUTO 08005KT 10SM OVC014 17/13 A3012 RMK AO2 SLP200 T01670128
Loading
Personal Weather Stations






























Interactive Weather Map New forecast layout! Learn more

10-Day Weather Forecast

Advertisements
Track Severe Weather on mobile